sensor_id;sensor_type;location;lat;lon;timestamp;P1;P2;P0
73565;PMS5003;61846;52.970;-3.168;2023-01-23T00:02:04;44;35;
73565;PMS5003;61846;52.970;-3.168;2023-01-23T00:04:29;44;33;
73565;PMS5003;61846;52.970;-3.168;2023-01-23T00:06:55;37;29;
73565;PMS5003;61846;52.970;-3.168;2023-01-23T00:09:20;41;34;
73565;PMS5003;61846;52.970;-3.168;2023-01-23T00:11:45;35;29;
73565;PMS5003;61846;52.970;-3.168;2023-01-23T00:14:10;46;35;
73565;PMS5003;61846;52.970;-3.168;2023-01-23T00:16:36;51;39;
73565;PMS5003;61846;52.970;-3.168;2023-01-23T00:19:01;46;40;
73565;PMS5003;61846;52.970;-3.168;2023-01-23T00:21:27;45;39;
73565;PMS5003;61846;52.970;-3.168;2023-01-23T00:23:52;66;54;
73565;PMS5003;61846;52.970;-3.168;2023-01-23T00:26:17;68;54;
73565;PMS5003;61846;52.970;-3.168;2023-01-23T00:28:41;61;49;
73565;PMS5003;61846;52.970;-3.168;2023-01-23T00:31:07;65;51;
73565;PMS5003;61846;52.970;-3.168;2023-01-23T00:33:32;53;42;
73565;PMS5003;61846;52.970;-3.168;2023-01-23T00:35:57;53;43;
73565;PMS5003;61846;52.970;-3.168;2023-01-23T00:38:23;58;46;
73565;PMS5003;61846;52.970;-3.168;2023-01-23T00:40:48;48;44;
73565;PMS5003;61846;52.970;-3.168;2023-01-23T00:43:13;43;39;
73565;PMS5003;61846;52.970;-3.168;2023-01-23T00:45:39;40;36;
73565;PMS5003;61846;52.970;-3.168;2023-01-23T00:48:04;42;34;
73565;PMS5003;61846;52.970;-3.168;2023-01-23T00:50:29;44;35;
73565;PMS5003;61846;52.970;-3.168;2023-01-23T00:52:55;41;36;
73565;PMS5003;61846;52.970;-3.168;2023-01-23T00:55:21;38;35;
73565;PMS5003;61846;52.970;-3.168;2023-01-23T00:57:46;42;34;
73565;PMS5003;61846;52.970;-3.168;2023-01-23T01:00:12;37;28;
73565;PMS5003;61846;52.970;-3.168;2023-01-23T01:02:37;30;28;
73565;PMS5003;61846;52.970;-3.168;2023-01-23T01:05:03;58;42;
73565;PMS5003;61846;52.970;-3.168;2023-01-23T01:07:28;49;41;
73565;PMS5003;61846;52.970;-3.168;2023-01-23T01:09:54;42;31;
73565;PMS5003;61846;52.970;-3.168;2023-01-23T01:12:19;36;29;
73565;PMS5003;61846;52.970;-3.168;2023-01-23T01:14:45;36;32;
73565;PMS5003;61846;52.970;-3.168;2023-01-23T01:17:10;35;28;
73565;PMS5003;61846;52.970;-3.168;2023-01-23T01:19:35;37;29;
73565;PMS5003;61846;52.970;-3.168;2023-01-23T01:22:01;57;48;
73565;PMS5003;61846;52.970;-3.168;2023-01-23T01:24:26;41;32;
73565;PMS5003;61846;52.970;-3.168;2023-01-23T01:26:52;46;31;
73565;PMS5003;61846;52.970;-3.168;2023-01-23T01:29:17;37;27;
73565;PMS5003;61846;52.970;-3.168;2023-01-23T01:31:42;52;42;
73565;PMS5003;61846;52.970;-3.168;2023-01-23T01:34:08;37;30;
73565;PMS5003;61846;52.970;-3.168;2023-01-23T01:36:34;27;24;
73565;PMS5003;61846;52.970;-3.168;2023-01-23T01:38:59;27;22;
73565;PMS5003;61846;52.970;-3.168;2023-01-23T01:41:25;24;22;
73565;PMS5003;61846;52.970;-3.168;2023-01-23T01:43:51;33;24;
73565;PMS5003;61846;52.970;-3.168;2023-01-23T01:46:18;57;37;
73565;PMS5003;61846;52.970;-3.168;2023-01-23T01:48:43;58;44;
73565;PMS5003;61846;52.970;-3.168;2023-01-23T01:51:08;55;43;
73565;PMS5003;61846;52.970;-3.168;2023-01-23T01:53:32;45;36;
73565;PMS5003;61846;52.970;-3.168;2023-01-23T01:55:57;29;25;
73565;PMS5003;61846;52.970;-3.168;2023-01-23T01:58:22;21;19;
73565;PMS5003;61846;52.970;-3.168;2023-01-23T02:00:48;28;22;
73565;PMS5003;61846;52.970;-3.168;2023-01-23T02:03:13;41;33;
73565;PMS5003;61846;52.970;-3.168;2023-01-23T02:05:39;41;32;
73565;PMS5003;61846;52.970;-3.168;2023-01-23T02:08:05;31;23;
73565;PMS5003;61846;52.970;-3.168;2023-01-23T02:10:29;31;22;
73565;PMS5003;61846;52.970;-3.168;2023-01-23T02:12:54;33;30;
73565;PMS5003;61846;52.970;-3.168;2023-01-23T02:15:21;36;28;
73565;PMS5003;61846;52.970;-3.168;2023-01-23T02:17:46;35;28;
73565;PMS5003;61846;52.970;-3.168;2023-01-23T02:20:11;28;24;
73565;PMS5003;61846;52.970;-3.168;2023-01-23T02:22:38;40;29;
73565;PMS5003;61846;52.970;-3.168;2023-01-23T02:25:03;34;23;
73565;PMS5003;61846;52.970;-3.168;2023-01-23T02:27:27;33;23;
73565;PMS5003;61846;52.970;-3.168;2023-01-23T02:29:52;27;25;
73565;PMS5003;61846;52.970;-3.168;2023-01-23T02:32:17;34;22;
73565;PMS5003;61846;52.970;-3.168;2023-01-23T02:34:43;21;17;
73565;PMS5003;61846;52.970;-3.168;2023-01-23T02:37:09;30;21;
73565;PMS5003;61846;52.970;-3.168;2023-01-23T02:39:34;21;20;
73565;PMS5003;61846;52.970;-3.168;2023-01-23T02:42:00;32;23;
73565;PMS5003;61846;52.970;-3.168;2023-01-23T02:44:26;35;26;
73565;PMS5003;61846;52.970;-3.168;2023-01-23T02:46:51;30;21;
73565;PMS5003;61846;52.970;-3.168;2023-01-23T02:49:16;28;19;
73565;PMS5003;61846;52.970;-3.168;2023-01-23T02:51:41;21;17;
73565;PMS5003;61846;52.970;-3.168;2023-01-23T02:54:07;31;20;
73565;PMS5003;61846;52.970;-3.168;2023-01-23T02:56:33;20;19;
73565;PMS5003;61846;52.970;-3.168;2023-01-23T02:58:58;23;20;
73565;PMS5003;61846;52.970;-3.168;2023-01-23T03:01:23;21;21;
73565;PMS5003;61846;52.970;-3.168;2023-01-23T03:03:49;23;21;
73565;PMS5003;61846;52.970;-3.168;2023-01-23T03:06:14;20;20;
73565;PMS5003;61846;52.970;-3.168;2023-01-23T03:08:39;28;22;
73565;PMS5003;61846;52.970;-3.168;2023-01-23T03:11:05;25;18;
73565;PMS5003;61846;52.970;-3.168;2023-01-23T03:13:30;24;21;
73565;PMS5003;61846;52.970;-3.168;2023-01-23T03:15:55;33;23;
73565;PMS5003;61846;52.970;-3.168;2023-01-23T03:18:21;20;18;
73565;PMS5003;61846;52.970;-3.168;2023-01-23T03:20:46;18;17;
73565;PMS5003;61846;52.970;-3.168;2023-01-23T03:23:12;22;20;
73565;PMS5003;61846;52.970;-3.168;2023-01-23T03:25:38;19;16;
73565;PMS5003;61846;52.970;-3.168;2023-01-23T03:28:02;30;20;
73565;PMS5003;61846;52.970;-3.168;2023-01-23T03:30:27;19;18;
73565;PMS5003;61846;52.970;-3.168;2023-01-23T03:32:53;28;22;
73565;PMS5003;61846;52.970;-3.168;2023-01-23T03:35:18;20;17;
73565;PMS5003;61846;52.970;-3.168;2023-01-23T03:37:43;28;20;
73565;PMS5003;61846;52.970;-3.168;2023-01-23T03:40:13;22;18;
73565;PMS5003;61846;52.970;-3.168;2023-01-23T03:42:35;19;19;
73565;PMS5003;61846;52.970;-3.168;2023-01-23T03:45:00;21;20;
73565;PMS5003;61846;52.970;-3.168;2023-01-23T03:47:26;18;16;
73565;PMS5003;61846;52.970;-3.168;2023-01-23T03:49:51;28;17;
73565;PMS5003;61846;52.970;-3.168;2023-01-23T03:52:17;23;17;
73565;PMS5003;61846;52.970;-3.168;2023-01-23T03:54:42;17;17;
73565;PMS5003;61846;52.970;-3.168;2023-01-23T03:57:08;31;23;
73565;PMS5003;61846;52.970;-3.168;2023-01-23T03:59:33;21;21;
73565;PMS5003;61846;52.970;-3.168;2023-01-23T04:01:58;19;15;
73565;PMS5003;61846;52.970;-3.168;2023-01-23T04:04:24;18;18;
73565;PMS5003;61846;52.970;-3.168;2023-01-23T04:06:50;24;19;
73565;PMS5003;61846;52.970;-3.168;2023-01-23T04:09:15;24;21;
73565;PMS5003;61846;52.970;-3.168;2023-01-23T04:11:41;20;19;
73565;PMS5003;61846;52.970;-3.168;2023-01-23T04:14:06;20;20;
73565;PMS5003;61846;52.970;-3.168;2023-01-23T04:16:32;30;23;
73565;PMS5003;61846;52.970;-3.168;2023-01-23T04:18:58;19;19;
73565;PMS5003;61846;52.970;-3.168;2023-01-23T04:21:23;25;23;
73565;PMS5003;61846;52.970;-3.168;2023-01-23T04:23:48;34;26;
73565;PMS5003;61846;52.970;-3.168;2023-01-23T04:26:14;29;22;
73565;PMS5003;61846;52.970;-3.168;2023-01-23T04:28:40;28;24;
73565;PMS5003;61846;52.970;-3.168;2023-01-23T04:31:05;29;19;
73565;PMS5003;61846;52.970;-3.168;2023-01-23T04:33:30;27;22;
73565;PMS5003;61846;52.970;-3.168;2023-01-23T04:35:56;25;22;
73565;PMS5003;61846;52.970;-3.168;2023-01-23T04:38:22;28;20;
73565;PMS5003;61846;52.970;-3.168;2023-01-23T04:40:46;23;18;
73565;PMS5003;61846;52.970;-3.168;2023-01-23T04:43:12;22;20;
73565;PMS5003;61846;52.970;-3.168;2023-01-23T04:45:38;16;16;
73565;PMS5003;61846;52.970;-3.168;2023-01-23T04:48:03;28;19;
73565;PMS5003;61846;52.970;-3.168;2023-01-23T04:50:28;19;19;
73565;PMS5003;61846;52.970;-3.168;2023-01-23T04:52:54;29;19;
73565;PMS5003;61846;52.970;-3.168;2023-01-23T04:55:19;23;22;
73565;PMS5003;61846;52.970;-3.168;2023-01-23T04:57:45;22;18;
73565;PMS5003;61846;52.970;-3.168;2023-01-23T05:00:10;22;17;
73565;PMS5003;61846;52.970;-3.168;2023-01-23T05:02:36;28;19;
73565;PMS5003;61846;52.970;-3.168;2023-01-23T05:05:01;25;17;
73565;PMS5003;61846;52.970;-3.168;2023-01-23T05:07:26;20;17;
73565;PMS5003;61846;52.970;-3.168;2023-01-23T05:09:52;26;19;
73565;PMS5003;61846;52.970;-3.168;2023-01-23T05:12:16;24;18;
73565;PMS5003;61846;52.970;-3.168;2023-01-23T05:14:42;30;21;
73565;PMS5003;61846;52.970;-3.168;2023-01-23T05:17:08;23;20;
73565;PMS5003;61846;52.970;-3.168;2023-01-23T05:19:34;17;17;
73565;PMS5003;61846;52.970;-3.168;2023-01-23T05:21:59;21;16;
73565;PMS5003;61846;52.970;-3.168;2023-01-23T05:24:25;18;18;
73565;PMS5003;61846;52.970;-3.168;2023-01-23T05:26:50;30;24;
73565;PMS5003;61846;52.970;-3.168;2023-01-23T05:29:16;50;38;
73565;PMS5003;61846;52.970;-3.168;2023-01-23T05:31:41;43;34;
73565;PMS5003;61846;52.970;-3.168;2023-01-23T05:34:07;27;24;
73565;PMS5003;61846;52.970;-3.168;2023-01-23T05:36:32;22;21;
73565;PMS5003;61846;52.970;-3.168;2023-01-23T05:38:57;28;21;
73565;PMS5003;61846;52.970;-3.168;2023-01-23T05:41:23;29;19;
73565;PMS5003;61846;52.970;-3.168;2023-01-23T05:43:48;21;18;
73565;PMS5003;61846;52.970;-3.168;2023-01-23T05:46:13;18;17;
73565;PMS5003;61846;52.970;-3.168;2023-01-23T05:48:39;19;16;
73565;PMS5003;61846;52.970;-3.168;2023-01-23T05:51:04;23;16;
73565;PMS5003;61846;52.970;-3.168;2023-01-23T05:53:30;22;20;
73565;PMS5003;61846;52.970;-3.168;2023-01-23T05:55:55;23;18;
73565;PMS5003;61846;52.970;-3.168;2023-01-23T05:58:21;18;18;
73565;PMS5003;61846;52.970;-3.168;2023-01-23T06:00:47;19;16;
73565;PMS5003;61846;52.970;-3.168;2023-01-23T06:03:12;17;15;
73565;PMS5003;61846;52.970;-3.168;2023-01-23T06:05:38;22;16;
73565;PMS5003;61846;52.970;-3.168;2023-01-23T06:08:03;19;17;
73565;PMS5003;61846;52.970;-3.168;2023-01-23T06:10:28;20;16;
73565;PMS5003;61846;52.970;-3.168;2023-01-23T06:12:54;15;13;
73565;PMS5003;61846;52.970;-3.168;2023-01-23T06:15:20;14;13;
73565;PMS5003;61846;52.970;-3.168;2023-01-23T06:17:45;16;16;
73565;PMS5003;61846;52.970;-3.168;2023-01-23T06:20:11;19;16;
73565;PMS5003;61846;52.970;-3.168;2023-01-23T06:22:35;22;13;
73565;PMS5003;61846;52.970;-3.168;2023-01-23T06:25:01;32;19;
73565;PMS5003;61846;52.970;-3.168;2023-01-23T06:27:26;30;20;
73565;PMS5003;61846;52.970;-3.168;2023-01-23T06:29:52;16;14;
73565;PMS5003;61846;52.970;-3.168;2023-01-23T06:32:17;25;18;
73565;PMS5003;61846;52.970;-3.168;2023-01-23T06:34:42;17;16;
73565;PMS5003;61846;52.970;-3.168;2023-01-23T06:37:07;11;11;
73565;PMS5003;61846;52.970;-3.168;2023-01-23T06:39:33;19;17;
73565;PMS5003;61846;52.970;-3.168;2023-01-23T06:41:59;19;17;
73565;PMS5003;61846;52.970;-3.168;2023-01-23T06:44:24;12;12;
73565;PMS5003;61846;52.970;-3.168;2023-01-23T06:46:51;14;14;
73565;PMS5003;61846;52.970;-3.168;2023-01-23T06:49:15;14;14;
73565;PMS5003;61846;52.970;-3.168;2023-01-23T06:51:41;17;14;
73565;PMS5003;61846;52.970;-3.168;2023-01-23T06:54:07;13;11;
73565;PMS5003;61846;52.970;-3.168;2023-01-23T06:56:32;15;14;
73565;PMS5003;61846;52.970;-3.168;2023-01-23T06:58:58;14;13;
73565;PMS5003;61846;52.970;-3.168;2023-01-23T07:01:23;18;15;
73565;PMS5003;61846;52.970;-3.168;2023-01-23T07:03:49;33;21;
73565;PMS5003;61846;52.970;-3.168;2023-01-23T07:06:14;23;21;
73565;PMS5003;61846;52.970;-3.168;2023-01-23T07:08:40;14;13;
73565;PMS5003;61846;52.970;-3.168;2023-01-23T07:11:05;13;13;
73565;PMS5003;61846;52.970;-3.168;2023-01-23T07:13:31;13;13;
73565;PMS5003;61846;52.970;-3.168;2023-01-23T07:15:56;22;15;
73565;PMS5003;61846;52.970;-3.168;2023-01-23T07:18:21;17;14;
73565;PMS5003;61846;52.970;-3.168;2023-01-23T07:20:47;20;14;
73565;PMS5003;61846;52.970;-3.168;2023-01-23T07:23:13;19;15;
73565;PMS5003;61846;52.970;-3.168;2023-01-23T07:25:38;14;11;
73565;PMS5003;61846;52.970;-3.168;2023-01-23T07:28:04;13;11;
73565;PMS5003;61846;52.970;-3.168;2023-01-23T07:30:29;17;15;
73565;PMS5003;61846;52.970;-3.168;2023-01-23T07:32:55;18;13;
73565;PMS5003;61846;52.970;-3.168;2023-01-23T07:35:21;17;16;
73565;PMS5003;61846;52.970;-3.168;2023-01-23T07:37:47;16;16;
73565;PMS5003;61846;52.970;-3.168;2023-01-23T07:40:13;18;15;
73565;PMS5003;61846;52.970;-3.168;2023-01-23T07:42:38;18;17;
73565;PMS5003;61846;52.970;-3.168;2023-01-23T07:45:03;18;16;
73565;PMS5003;61846;52.970;-3.168;2023-01-23T07:47:28;23;17;
73565;PMS5003;61846;52.970;-3.168;2023-01-23T07:49:54;18;17;
73565;PMS5003;61846;52.970;-3.168;2023-01-23T07:52:19;40;30;
73565;PMS5003;61846;52.970;-3.168;2023-01-23T07:54:45;38;30;
73565;PMS5003;61846;52.970;-3.168;2023-01-23T07:57:10;28;23;
73565;PMS5003;61846;52.970;-3.168;2023-01-23T07:59:36;22;17;
73565;PMS5003;61846;52.970;-3.168;2023-01-23T08:02:01;16;15;
73565;PMS5003;61846;52.970;-3.168;2023-01-23T08:04:26;23;21;
73565;PMS5003;61846;52.970;-3.168;2023-01-23T08:06:52;19;18;
73565;PMS5003;61846;52.970;-3.168;2023-01-23T08:09:17;28;21;
73565;PMS5003;61846;52.970;-3.168;2023-01-23T08:11:43;14;13;
73565;PMS5003;61846;52.970;-3.168;2023-01-23T08:14:09;24;22;
73565;PMS5003;61846;52.970;-3.168;2023-01-23T08:16:34;21;19;
73565;PMS5003;61846;52.970;-3.168;2023-01-23T08:18:59;23;19;
73565;PMS5003;61846;52.970;-3.168;2023-01-23T08:21:24;27;21;
73565;PMS5003;61846;52.970;-3.168;2023-01-23T08:23:50;13;12;
73565;PMS5003;61846;52.970;-3.168;2023-01-23T08:26:15;17;16;
73565;PMS5003;61846;52.970;-3.168;2023-01-23T08:28:41;15;12;
73565;PMS5003;61846;52.970;-3.168;2023-01-23T08:31:06;13;13;
73565;PMS5003;61846;52.970;-3.168;2023-01-23T08:33:31;10;10;
73565;PMS5003;61846;52.970;-3.168;2023-01-23T08:35:57;13;12;
73565;PMS5003;61846;52.970;-3.168;2023-01-23T08:38:22;23;14;
73565;PMS5003;61846;52.970;-3.168;2023-01-23T08:40:48;18;16;
73565;PMS5003;61846;52.970;-3.168;2023-01-23T08:43:13;15;14;
73565;PMS5003;61846;52.970;-3.168;2023-01-23T08:45:38;23;16;
73565;PMS5003;61846;52.970;-3.168;2023-01-23T08:48:04;20;14;
73565;PMS5003;61846;52.970;-3.168;2023-01-23T08:50:29;15;11;
73565;PMS5003;61846;52.970;-3.168;2023-01-23T08:52:54;17;16;
73565;PMS5003;61846;52.970;-3.168;2023-01-23T08:55:20;15;15;
73565;PMS5003;61846;52.970;-3.168;2023-01-23T08:57:46;21;16;
73565;PMS5003;61846;52.970;-3.168;2023-01-23T09:00:12;18;15;
73565;PMS5003;61846;52.970;-3.168;2023-01-23T09:02:37;17;17;
73565;PMS5003;61846;52.970;-3.168;2023-01-23T09:05:02;15;15;
73565;PMS5003;61846;52.970;-3.168;2023-01-23T09:07:28;18;12;
73565;PMS5003;61846;52.970;-3.168;2023-01-23T09:09:54;12;11;
73565;PMS5003;61846;52.970;-3.168;2023-01-23T09:12:19;16;13;
73565;PMS5003;61846;52.970;-3.168;2023-01-23T09:14:45;10;10;
73565;PMS5003;61846;52.970;-3.168;2023-01-23T09:17:11;21;12;
73565;PMS5003;61846;52.970;-3.168;2023-01-23T09:19:36;12;12;
73565;PMS5003;61846;52.970;-3.168;2023-01-23T09:22:01;16;15;
73565;PMS5003;61846;52.970;-3.168;2023-01-23T09:24:27;14;12;
73565;PMS5003;61846;52.970;-3.168;2023-01-23T09:26:53;25;18;
73565;PMS5003;61846;52.970;-3.168;2023-01-23T09:29:18;25;15;
73565;PMS5003;61846;52.970;-3.168;2023-01-23T09:31:44;20;18;
73565;PMS5003;61846;52.970;-3.168;2023-01-23T09:34:09;17;17;
73565;PMS5003;61846;52.970;-3.168;2023-01-23T09:36:35;16;16;
73565;PMS5003;61846;52.970;-3.168;2023-01-23T09:39:00;16;13;
73565;PMS5003;61846;52.970;-3.168;2023-01-23T09:41:26;17;14;
73565;PMS5003;61846;52.970;-3.168;2023-01-23T09:43:52;14;14;
73565;PMS5003;61846;52.970;-3.168;2023-01-23T09:46:18;22;17;
73565;PMS5003;61846;52.970;-3.168;2023-01-23T09:48:43;19;17;
73565;PMS5003;61846;52.970;-3.168;2023-01-23T09:51:10;22;16;
73565;PMS5003;61846;52.970;-3.168;2023-01-23T09:53:34;21;21;
73565;PMS5003;61846;52.970;-3.168;2023-01-23T09:55:59;18;17;
73565;PMS5003;61846;52.970;-3.168;2023-01-23T09:58:26;19;17;
73565;PMS5003;61846;52.970;-3.168;2023-01-23T10:00:50;22;20;
73565;PMS5003;61846;52.970;-3.168;2023-01-23T10:03:14;17;15;
73565;PMS5003;61846;52.970;-3.168;2023-01-23T10:05:41;12;12;
73565;PMS5003;61846;52.970;-3.168;2023-01-23T10:08:09;14;13;
73565;PMS5003;61846;52.970;-3.168;2023-01-23T10:10:37;12;11;
73565;PMS5003;61846;52.970;-3.168;2023-01-23T10:12:58;22;14;
73565;PMS5003;61846;52.970;-3.168;2023-01-23T10:15:24;16;12;
73565;PMS5003;61846;52.970;-3.168;2023-01-23T10:17:50;13;13;
73565;PMS5003;61846;52.970;-3.168;2023-01-23T10:20:16;13;13;
73565;PMS5003;61846;52.970;-3.168;2023-01-23T10:22:40;17;14;
73565;PMS5003;61846;52.970;-3.168;2023-01-23T10:25:09;14;13;
73565;PMS5003;61846;52.970;-3.168;2023-01-23T10:27:31;15;12;
73565;PMS5003;61846;52.970;-3.168;2023-01-23T10:29:56;14;13;
73565;PMS5003;61846;52.970;-3.168;2023-01-23T10:32:23;15;13;
73565;PMS5003;61846;52.970;-3.168;2023-01-23T10:34:46;22;16;
73565;PMS5003;61846;52.970;-3.168;2023-01-23T10:37:12;19;16;
73565;PMS5003;61846;52.970;-3.168;2023-01-23T10:39:40;16;16;
73565;PMS5003;61846;52.970;-3.168;2023-01-23T10:42:04;22;19;
73565;PMS5003;61846;52.970;-3.168;2023-01-23T10:44:28;26;18;
73565;PMS5003;61846;52.970;-3.168;2023-01-23T10:46:55;15;15;
73565;PMS5003;61846;52.970;-3.168;2023-01-23T10:49:28;14;12;
73565;PMS5003;61846;52.970;-3.168;2023-01-23T10:51:44;16;11;
73565;PMS5003;61846;52.970;-3.168;2023-01-23T10:54:11;18;13;
73565;PMS5003;61846;52.970;-3.168;2023-01-23T10:56:36;22;14;
73565;PMS5003;61846;52.970;-3.168;2023-01-23T10:59:00;11;11;
73565;PMS5003;61846;52.970;-3.168;2023-01-23T11:01:27;19;19;
73565;PMS5003;61846;52.970;-3.168;2023-01-23T11:03:52;16;12;
73565;PMS5003;61846;52.970;-3.168;2023-01-23T11:06:17;15;11;
73565;PMS5003;61846;52.970;-3.168;2023-01-23T11:08:48;10;10;
73565;PMS5003;61846;52.970;-3.168;2023-01-23T11:11:18;12;11;
73565;PMS5003;61846;52.970;-3.168;2023-01-23T11:13:34;12;11;
73565;PMS5003;61846;52.970;-3.168;2023-01-23T11:15:59;17;15;
73565;PMS5003;61846;52.970;-3.168;2023-01-23T11:18:29;15;13;
73565;PMS5003;61846;52.970;-3.168;2023-01-23T11:20:52;15;14;
73565;PMS5003;61846;52.970;-3.168;2023-01-23T11:23:16;14;12;
73565;PMS5003;61846;52.970;-3.168;2023-01-23T11:25:41;14;14;
73565;PMS5003;61846;52.970;-3.168;2023-01-23T11:30:34;16;14;
73565;PMS5003;61846;52.970;-3.168;2023-01-23T11:32:57;17;14;
73565;PMS5003;61846;52.970;-3.168;2023-01-23T11:35:23;22;16;
73565;PMS5003;61846;52.970;-3.168;2023-01-23T11:37:48;22;15;
73565;PMS5003;61846;52.970;-3.168;2023-01-23T11:40:14;15;15;
73565;PMS5003;61846;52.970;-3.168;2023-01-23T11:42:39;19;16;
73565;PMS5003;61846;52.970;-3.168;2023-01-23T11:45:04;17;15;
73565;PMS5003;61846;52.970;-3.168;2023-01-23T11:47:33;14;14;
73565;PMS5003;61846;52.970;-3.168;2023-01-23T11:49:59;16;12;
73565;PMS5003;61846;52.970;-3.168;2023-01-23T11:52:24;18;16;
73565;PMS5003;61846;52.970;-3.168;2023-01-23T11:54:52;16;15;
73565;PMS5003;61846;52.970;-3.168;2023-01-23T11:57:10;28;19;
73565;PMS5003;61846;52.970;-3.168;2023-01-23T11:59:39;22;22;
73565;PMS5003;61846;52.970;-3.168;2023-01-23T12:04:30;31;26;
73565;PMS5003;61846;52.970;-3.168;2023-01-23T12:07:01;24;21;
73565;PMS5003;61846;52.970;-3.168;2023-01-23T12:09:17;22;22;
73565;PMS5003;61846;52.970;-3.168;2023-01-23T12:11:47;26;21;
73565;PMS5003;61846;52.970;-3.168;2023-01-23T12:14:11;28;22;
73565;PMS5003;61846;52.970;-3.168;2023-01-23T12:16:38;38;37;
73565;PMS5003;61846;52.970;-3.168;2023-01-23T12:19:04;31;27;
73565;PMS5003;61846;52.970;-3.168;2023-01-23T12:21:26;32;23;
73565;PMS5003;61846;52.970;-3.168;2023-01-23T12:23:54;27;24;
73565;PMS5003;61846;52.970;-3.168;2023-01-23T12:26:17;28;23;
73565;PMS5003;61846;52.970;-3.168;2023-01-23T12:28:47;19;19;
73565;PMS5003;61846;52.970;-3.168;2023-01-23T12:31:09;20;19;
73565;PMS5003;61846;52.970;-3.168;2023-01-23T12:33:36;25;20;
73565;PMS5003;61846;52.970;-3.168;2023-01-23T12:36:11;23;18;
73565;PMS5003;61846;52.970;-3.168;2023-01-23T12:38:23;33;23;
73565;PMS5003;61846;52.970;-3.168;2023-01-23T12:40:48;32;23;
73565;PMS5003;61846;52.970;-3.168;2023-01-23T12:43:15;36;26;
73565;PMS5003;61846;52.970;-3.168;2023-01-23T12:45:39;33;24;
73565;PMS5003;61846;52.970;-3.168;2023-01-23T12:48:04;25;15;
73565;PMS5003;61846;52.970;-3.168;2023-01-23T12:50:31;15;13;
73565;PMS5003;61846;52.970;-3.168;2023-01-23T12:52:55;20;15;
73565;PMS5003;61846;52.970;-3.168;2023-01-23T12:55:20;20;17;
73565;PMS5003;61846;52.970;-3.168;2023-01-23T12:57:44;15;13;
73565;PMS5003;61846;52.970;-3.168;2023-01-23T13:00:12;14;14;
73565;PMS5003;61846;52.970;-3.168;2023-01-23T13:02:37;15;14;
73565;PMS5003;61846;52.970;-3.168;2023-01-23T13:05:05;19;14;
73565;PMS5003;61846;52.970;-3.168;2023-01-23T13:07:30;18;16;
73565;PMS5003;61846;52.970;-3.168;2023-01-23T13:10:03;28;19;
73565;PMS5003;61846;52.970;-3.168;2023-01-23T13:12:18;24;17;
73565;PMS5003;61846;52.970;-3.168;2023-01-23T13:14:43;16;16;
73565;PMS5003;61846;52.970;-3.168;2023-01-23T13:19:38;19;13;
73565;PMS5003;61846;52.970;-3.168;2023-01-23T13:22:03;11;10;
73565;PMS5003;61846;52.970;-3.168;2023-01-23T13:24:31;23;17;
73565;PMS5003;61846;52.970;-3.168;2023-01-23T13:26:50;18;16;
73565;PMS5003;61846;52.970;-3.168;2023-01-23T13:31:42;21;20;
73565;PMS5003;61846;52.970;-3.168;2023-01-23T13:36:33;34;27;
73565;PMS5003;61846;52.970;-3.168;2023-01-23T13:38:59;32;26;
73565;PMS5003;61846;52.970;-3.168;2023-01-23T13:41:27;35;30;
73565;PMS5003;61846;52.970;-3.168;2023-01-23T13:43:51;38;30;
73565;PMS5003;61846;52.970;-3.168;2023-01-23T13:46:14;24;24;
73565;PMS5003;61846;52.970;-3.168;2023-01-23T13:48:44;34;23;
73565;PMS5003;61846;52.970;-3.168;2023-01-23T13:51:07;39;30;
73565;PMS5003;61846;52.970;-3.168;2023-01-23T13:53:30;41;34;
73565;PMS5003;61846;52.970;-3.168;2023-01-23T13:55:56;35;28;
73565;PMS5003;61846;52.970;-3.168;2023-01-23T13:58:21;33;27;
73565;PMS5003;61846;52.970;-3.168;2023-01-23T14:00:47;30;30;
73565;PMS5003;61846;52.970;-3.168;2023-01-23T14:03:17;36;29;
73565;PMS5003;61846;52.970;-3.168;2023-01-23T14:05:37;36;29;
73565;PMS5003;61846;52.970;-3.168;2023-01-23T14:08:03;40;33;
73565;PMS5003;61846;52.970;-3.168;2023-01-23T14:10:28;34;34;
73565;PMS5003;61846;52.970;-3.168;2023-01-23T14:13:02;41;34;
73565;PMS5003;61846;52.970;-3.168;2023-01-23T14:15:19;31;31;
73565;PMS5003;61846;52.970;-3.168;2023-01-23T14:17:44;33;30;
73565;PMS5003;61846;52.970;-3.168;2023-01-23T14:20:12;39;33;
73565;PMS5003;61846;52.970;-3.168;2023-01-23T14:22:34;32;28;
73565;PMS5003;61846;52.970;-3.168;2023-01-23T14:25:00;34;29;
73565;PMS5003;61846;52.970;-3.168;2023-01-23T14:27:27;52;39;
73565;PMS5003;61846;52.970;-3.168;2023-01-23T14:29:56;45;36;
73565;PMS5003;61846;52.970;-3.168;2023-01-23T14:32:21;45;36;
73565;PMS5003;61846;52.970;-3.168;2023-01-23T14:34:43;39;31;
73565;PMS5003;61846;52.970;-3.168;2023-01-23T14:37:09;27;25;
73565;PMS5003;61846;52.970;-3.168;2023-01-23T14:39:34;43;33;
73565;PMS5003;61846;52.970;-3.168;2023-01-23T14:41:59;50;37;
73565;PMS5003;61846;52.970;-3.168;2023-01-23T14:44:26;45;34;
73565;PMS5003;61846;52.970;-3.168;2023-01-23T14:46:50;31;29;
73565;PMS5003;61846;52.970;-3.168;2023-01-23T14:49:15;44;35;
73565;PMS5003;61846;52.970;-3.168;2023-01-23T14:56:33;41;39;
73565;PMS5003;61846;52.970;-3.168;2023-01-23T14:59:00;34;31;
73565;PMS5003;61846;52.970;-3.168;2023-01-23T15:01:23;37;34;
73565;PMS5003;61846;52.970;-3.168;2023-01-23T15:03:54;40;36;
73565;PMS5003;61846;52.970;-3.168;2023-01-23T15:06:17;35;31;
73565;PMS5003;61846;52.970;-3.168;2023-01-23T15:08:40;41;40;
73565;PMS5003;61846;52.970;-3.168;2023-01-23T15:11:05;50;43;
73565;PMS5003;61846;52.970;-3.168;2023-01-23T15:13:31;50;39;
73565;PMS5003;61846;52.970;-3.168;2023-01-23T15:15:56;48;44;
73565;PMS5003;61846;52.970;-3.168;2023-01-23T15:18:22;57;51;
73565;PMS5003;61846;52.970;-3.168;2023-01-23T15:20:52;60;53;
73565;PMS5003;61846;52.970;-3.168;2023-01-23T15:25:37;53;43;
73565;PMS5003;61846;52.970;-3.168;2023-01-23T15:30:29;38;37;
73565;PMS5003;61846;52.970;-3.168;2023-01-23T15:32:54;48;41;
73565;PMS5003;61846;52.970;-3.168;2023-01-23T15:35:20;50;42;
73565;PMS5003;61846;52.970;-3.168;2023-01-23T15:37:45;44;40;
73565;PMS5003;61846;52.970;-3.168;2023-01-23T15:40:13;44;42;
73565;PMS5003;61846;52.970;-3.168;2023-01-23T15:42:36;46;39;
73565;PMS5003;61846;52.970;-3.168;2023-01-23T15:45:04;52;44;
73565;PMS5003;61846;52.970;-3.168;2023-01-23T15:47:29;42;35;
73565;PMS5003;61846;52.970;-3.168;2023-01-23T15:49:54;45;38;
73565;PMS5003;61846;52.970;-3.168;2023-01-23T15:52:20;38;34;
73565;PMS5003;61846;52.970;-3.168;2023-01-23T15:54:45;47;42;
73565;PMS5003;61846;52.970;-3.168;2023-01-23T15:57:11;40;38;
73565;PMS5003;61846;52.970;-3.168;2023-01-23T15:59:37;50;41;
73565;PMS5003;61846;52.970;-3.168;2023-01-23T16:02:02;35;32;
73565;PMS5003;61846;52.970;-3.168;2023-01-23T16:04:28;48;41;
73565;PMS5003;61846;52.970;-3.168;2023-01-23T16:06:53;55;49;
73565;PMS5003;61846;52.970;-3.168;2023-01-23T16:09:20;50;41;
73565;PMS5003;61846;52.970;-3.168;2023-01-23T16:11:44;49;40;